Decatur, IL (62522)

1:59 AM CDT on June 23, 2017 (GMT -0500)
Sanitary District of Decatur | | Change Station

Elev 604 ft 39.84 °N, 89.00 °W | Updated 8 seconds ago

Overcast
Overcast
74.3 °F
Feels Like 73 °F
N
2.2
Wind Variable Wind from South

Today
High -- | Low -- °F
--% Chance of Precip.
Yesterday
High -- | Low -- °F
Precip. -- in
Pressure 29.71 in
Visibility 10.0 miles
Clouds Mostly Cloudy 800 ft
Overcast 3000 ft
Heat Index 73 °F
Dew Point 70 °F
Humidity 88%
Rainfall 0.00 in
Snow Depth Not available.
5:28 AM 8:28 PM
Waning Crescent, 1% visible
METAR KDEC 230654Z AUTO 21007KT 10SM BKN008 OVC030 23/22 A2973 RMK AO2 CIG 006V011 SLP061 T02330222
Pressure 29.71 in
Visibility 10.0 miles
Clouds Mostly Cloudy 800 ft
Overcast 3000 ft
Heat Index 73 °F
Dew Point 70 °F
Humidity 88%
Rainfall 0.00 in
Snow Depth Not available.
5:28 AM 8:28 PM
Waning Crescent, 1% visible
METAR KDEC 230654Z AUTO 21007KT 10SM BKN008 OVC030 23/22 A2973 RMK AO2 CIG 006V011 SLP061 T02330222

Get Severe Weather Alerts

Thanks for signing up!

Be on the lookout for a verification email in your inbox.

You'll start receiving the daily forecast at 6 AM.

×

10-Day Weather Forecast

Almanac

Astronomy

Jun. 23, 2017 Rise Set
Actual Time
Civil Twilight
Nautical Twilight
Astronomical Twilight
Moon
Length of Visible Light
Length of Day
Tomorrow will be .
, % of the Moon is Illuminated

Today's Extremes

State Highs State Lows

Community

WunderPhotos

Category 6

Welcome to Category 6. This is the collective home for Weather Underground's featured writeups by Dr. Jeff Masters (right), Bob Henson (left), Chris Burt, and other regular contributors.

Nearby

Air Quality

  Air Quality AQ Index Pollutant
Not available.

Snow Depth

Station Depth Elevation

Earthquake Activity

City Distance Mag. Time & Date
Minimum magnitude displayed is 2.5.

Coastal Water Temperatures

Place Temperature

Stations

Nearby Weather Stations

Station Location Temp. Windchill Dew Point Humidity Wind Precip. Elev Updated Type
                   

Watches & Warnings

There are currently no watches in effect.